sensor_id;sensor_type;location;lat;lon;timestamp;P1;durP1;ratioP1;P2;durP2;ratioP2
2299;SDS011;1158;48.750;9.078;2023-11-21T00:01:45;7.20;;;2.70;;
2299;SDS011;1158;48.750;9.078;2023-11-21T00:04:12;6.67;;;2.53;;
2299;SDS011;1158;48.750;9.078;2023-11-21T00:06:41;6.17;;;1.80;;
2299;SDS011;1158;48.750;9.078;2023-11-21T00:09:11;5.33;;;2.13;;
2299;SDS011;1158;48.750;9.078;2023-11-21T00:11:40;2.63;;;1.73;;
2299;SDS011;1158;48.750;9.078;2023-11-21T00:14:07;6.63;;;1.80;;
2299;SDS011;1158;48.750;9.078;2023-11-21T00:16:34;3.37;;;1.90;;
2299;SDS011;1158;48.750;9.078;2023-11-21T00:19:01;4.40;;;1.70;;
2299;SDS011;1158;48.750;9.078;2023-11-21T00:21:27;7.80;;;1.80;;
2299;SDS011;1158;48.750;9.078;2023-11-21T00:23:55;5.57;;;2.13;;
2299;SDS011;1158;48.750;9.078;2023-11-21T00:26:22;5.80;;;2.20;;
2299;SDS011;1158;48.750;9.078;2023-11-21T00:28:49;3.40;;;1.67;;
2299;SDS011;1158;48.750;9.078;2023-11-21T00:31:16;8.00;;;1.70;;
2299;SDS011;1158;48.750;9.078;2023-11-21T00:33:42;10.70;;;2.60;;
2299;SDS011;1158;48.750;9.078;2023-11-21T00:36:09;8.43;;;2.40;;
2299;SDS011;1158;48.750;9.078;2023-11-21T00:38:36;6.70;;;2.30;;
2299;SDS011;1158;48.750;9.078;2023-11-21T00:41:06;5.07;;;2.33;;
2299;SDS011;1158;48.750;9.078;2023-11-21T00:43:33;6.70;;;2.70;;
2299;SDS011;1158;48.750;9.078;2023-11-21T00:45:59;9.10;;;3.63;;
2299;SDS011;1158;48.750;9.078;2023-11-21T00:48:29;9.27;;;2.70;;
2299;SDS011;1158;48.750;9.078;2023-11-21T00:50:56;4.27;;;2.37;;
2299;SDS011;1158;48.750;9.078;2023-11-21T00:53:23;7.23;;;2.20;;
2299;SDS011;1158;48.750;9.078;2023-11-21T00:55:49;6.73;;;2.37;;
2299;SDS011;1158;48.750;9.078;2023-11-21T00:58:18;5.63;;;2.60;;
2299;SDS011;1158;48.750;9.078;2023-11-21T01:00:45;6.40;;;2.27;;
2299;SDS011;1158;48.750;9.078;2023-11-21T01:03:13;5.63;;;2.70;;
2299;SDS011;1158;48.750;9.078;2023-11-21T01:05:40;7.33;;;2.53;;
2299;SDS011;1158;48.750;9.078;2023-11-21T01:08:07;8.10;;;2.70;;
2299;SDS011;1158;48.750;9.078;2023-11-21T01:10:33;6.83;;;2.40;;
2299;SDS011;1158;48.750;9.078;2023-11-21T01:13:01;4.73;;;2.00;;
2299;SDS011;1158;48.750;9.078;2023-11-21T01:15:30;8.23;;;2.67;;
2299;SDS011;1158;48.750;9.078;2023-11-21T01:17:57;3.70;;;2.40;;
2299;SDS011;1158;48.750;9.078;2023-11-21T01:20:23;5.07;;;2.30;;
2299;SDS011;1158;48.750;9.078;2023-11-21T01:22:51;8.40;;;2.40;;
2299;SDS011;1158;48.750;9.078;2023-11-21T01:25:18;2.80;;;1.70;;
2299;SDS011;1158;48.750;9.078;2023-11-21T01:27:46;10.60;;;2.07;;
2299;SDS011;1158;48.750;9.078;2023-11-21T01:30:13;10.20;;;2.30;;
2299;SDS011;1158;48.750;9.078;2023-11-21T01:32:40;5.87;;;2.10;;
2299;SDS011;1158;48.750;9.078;2023-11-21T01:35:07;10.10;;;2.40;;
2299;SDS011;1158;48.750;9.078;2023-11-21T01:37:35;7.43;;;2.53;;
2299;SDS011;1158;48.750;9.078;2023-11-21T01:40:02;6.80;;;1.90;;
2299;SDS011;1158;48.750;9.078;2023-11-21T01:42:33;5.37;;;2.00;;
2299;SDS011;1158;48.750;9.078;2023-11-21T01:45:00;5.63;;;2.43;;
2299;SDS011;1158;48.750;9.078;2023-11-21T01:47:30;6.17;;;2.10;;
2299;SDS011;1158;48.750;9.078;2023-11-21T01:49:58;4.03;;;2.10;;
2299;SDS011;1158;48.750;9.078;2023-11-21T01:52:25;6.43;;;2.17;;
2299;SDS011;1158;48.750;9.078;2023-11-21T01:54:52;8.57;;;2.00;;
2299;SDS011;1158;48.750;9.078;2023-11-21T01:57:19;9.10;;;2.10;;
2299;SDS011;1158;48.750;9.078;2023-11-21T01:59:46;8.03;;;2.57;;
2299;SDS011;1158;48.750;9.078;2023-11-21T02:02:15;7.97;;;2.40;;
2299;SDS011;1158;48.750;9.078;2023-11-21T02:04:42;5.60;;;2.30;;
2299;SDS011;1158;48.750;9.078;2023-11-21T02:07:10;5.20;;;2.40;;
2299;SDS011;1158;48.750;9.078;2023-11-21T02:09:37;6.33;;;2.03;;
2299;SDS011;1158;48.750;9.078;2023-11-21T02:12:07;5.10;;;1.70;;
2299;SDS011;1158;48.750;9.078;2023-11-21T02:14:35;3.77;;;1.60;;
2299;SDS011;1158;48.750;9.078;2023-11-21T02:17:02;5.60;;;2.53;;
2299;SDS011;1158;48.750;9.078;2023-11-21T02:19:29;6.47;;;1.60;;
2299;SDS011;1158;48.750;9.078;2023-11-21T02:21:57;6.50;;;1.87;;
2299;SDS011;1158;48.750;9.078;2023-11-21T02:24:29;4.10;;;1.97;;
2299;SDS011;1158;48.750;9.078;2023-11-21T02:26:56;6.87;;;2.10;;
2299;SDS011;1158;48.750;9.078;2023-11-21T02:29:23;4.27;;;1.63;;
2299;SDS011;1158;48.750;9.078;2023-11-21T02:31:53;2.70;;;1.57;;
2299;SDS011;1158;48.750;9.078;2023-11-21T02:34:20;3.90;;;2.23;;
2299;SDS011;1158;48.750;9.078;2023-11-21T02:36:48;6.77;;;1.60;;
2299;SDS011;1158;48.750;9.078;2023-11-21T02:39:16;3.80;;;1.63;;
2299;SDS011;1158;48.750;9.078;2023-11-21T02:41:44;3.93;;;1.43;;
2299;SDS011;1158;48.750;9.078;2023-11-21T02:44:11;8.53;;;1.90;;
2299;SDS011;1158;48.750;9.078;2023-11-21T02:46:37;4.23;;;1.60;;
2299;SDS011;1158;48.750;9.078;2023-11-21T02:49:05;7.23;;;2.00;;
2299;SDS011;1158;48.750;9.078;2023-11-21T02:51:32;3.37;;;2.00;;
2299;SDS011;1158;48.750;9.078;2023-11-21T02:53:59;2.90;;;1.33;;
2299;SDS011;1158;48.750;9.078;2023-11-21T02:56:28;3.70;;;1.60;;
2299;SDS011;1158;48.750;9.078;2023-11-21T02:58:56;8.50;;;1.30;;
2299;SDS011;1158;48.750;9.078;2023-11-21T03:01:23;7.20;;;1.57;;
2299;SDS011;1158;48.750;9.078;2023-11-21T03:03:50;4.97;;;1.20;;
2299;SDS011;1158;48.750;9.078;2023-11-21T03:06:17;5.17;;;1.30;;
2299;SDS011;1158;48.750;9.078;2023-11-21T03:08:44;2.70;;;1.50;;
2299;SDS011;1158;48.750;9.078;2023-11-21T03:11:11;5.10;;;1.50;;
2299;SDS011;1158;48.750;9.078;2023-11-21T03:13:38;2.47;;;1.40;;
2299;SDS011;1158;48.750;9.078;2023-11-21T03:16:07;4.17;;;1.27;;
2299;SDS011;1158;48.750;9.078;2023-11-21T03:18:35;3.63;;;1.60;;
2299;SDS011;1158;48.750;9.078;2023-11-21T03:21:02;2.50;;;1.30;;
2299;SDS011;1158;48.750;9.078;2023-11-21T03:23:29;4.37;;;1.40;;
2299;SDS011;1158;48.750;9.078;2023-11-21T03:25:56;3.80;;;1.30;;
2299;SDS011;1158;48.750;9.078;2023-11-21T03:28:23;6.23;;;1.23;;
2299;SDS011;1158;48.750;9.078;2023-11-21T03:30:50;3.33;;;1.23;;
2299;SDS011;1158;48.750;9.078;2023-11-21T03:33:18;4.10;;;1.20;;
2299;SDS011;1158;48.750;9.078;2023-11-21T03:35:44;4.33;;;1.37;;
2299;SDS011;1158;48.750;9.078;2023-11-21T03:38:11;5.00;;;1.20;;
2299;SDS011;1158;48.750;9.078;2023-11-21T03:40:38;4.10;;;1.50;;
2299;SDS011;1158;48.750;9.078;2023-11-21T03:43:05;4.30;;;1.00;;
2299;SDS011;1158;48.750;9.078;2023-11-21T03:45:32;6.50;;;1.30;;
2299;SDS011;1158;48.750;9.078;2023-11-21T03:47:59;2.60;;;1.33;;
2299;SDS011;1158;48.750;9.078;2023-11-21T03:50:28;2.73;;;1.30;;
2299;SDS011;1158;48.750;9.078;2023-11-21T03:52:54;2.93;;;1.30;;
2299;SDS011;1158;48.750;9.078;2023-11-21T03:55:21;8.33;;;1.40;;
2299;SDS011;1158;48.750;9.078;2023-11-21T03:57:49;5.33;;;1.50;;
2299;SDS011;1158;48.750;9.078;2023-11-21T04:00:16;2.10;;;1.30;;
2299;SDS011;1158;48.750;9.078;2023-11-21T04:02:45;2.77;;;1.10;;
2299;SDS011;1158;48.750;9.078;2023-11-21T04:05:12;2.90;;;1.63;;
2299;SDS011;1158;48.750;9.078;2023-11-21T04:07:41;5.50;;;1.30;;
2299;SDS011;1158;48.750;9.078;2023-11-21T04:10:08;4.60;;;1.20;;
2299;SDS011;1158;48.750;9.078;2023-11-21T04:12:37;5.27;;;1.60;;
2299;SDS011;1158;48.750;9.078;2023-11-21T04:15:05;4.13;;;1.30;;
2299;SDS011;1158;48.750;9.078;2023-11-21T04:17:33;3.77;;;1.70;;
2299;SDS011;1158;48.750;9.078;2023-11-21T04:20:01;2.93;;;1.30;;
2299;SDS011;1158;48.750;9.078;2023-11-21T04:22:28;2.97;;;1.17;;
2299;SDS011;1158;48.750;9.078;2023-11-21T04:24:56;4.10;;;1.13;;
2299;SDS011;1158;48.750;9.078;2023-11-21T04:27:23;3.63;;;1.30;;
2299;SDS011;1158;48.750;9.078;2023-11-21T04:29:50;3.17;;;1.53;;
2299;SDS011;1158;48.750;9.078;2023-11-21T04:32:16;1.90;;;1.00;;
2299;SDS011;1158;48.750;9.078;2023-11-21T04:34:43;1.80;;;1.10;;
2299;SDS011;1158;48.750;9.078;2023-11-21T04:37:10;2.97;;;1.27;;
2299;SDS011;1158;48.750;9.078;2023-11-21T04:39:37;3.63;;;1.30;;
2299;SDS011;1158;48.750;9.078;2023-11-21T04:42:05;4.37;;;1.30;;
2299;SDS011;1158;48.750;9.078;2023-11-21T04:44:32;2.10;;;1.30;;
2299;SDS011;1158;48.750;9.078;2023-11-21T04:46:58;12.30;;;2.40;;
2299;SDS011;1158;48.750;9.078;2023-11-21T04:49:26;7.23;;;1.20;;
2299;SDS011;1158;48.750;9.078;2023-11-21T04:51:53;7.80;;;1.40;;
2299;SDS011;1158;48.750;9.078;2023-11-21T04:54:20;2.03;;;1.17;;
2299;SDS011;1158;48.750;9.078;2023-11-21T04:56:46;2.40;;;1.03;;
2299;SDS011;1158;48.750;9.078;2023-11-21T04:59:14;5.60;;;1.40;;
2299;SDS011;1158;48.750;9.078;2023-11-21T05:01:41;5.50;;;1.60;;
2299;SDS011;1158;48.750;9.078;2023-11-21T05:04:08;3.40;;;1.20;;
2299;SDS011;1158;48.750;9.078;2023-11-21T05:06:34;2.97;;;1.40;;
2299;SDS011;1158;48.750;9.078;2023-11-21T05:09:01;2.50;;;1.40;;
2299;SDS011;1158;48.750;9.078;2023-11-21T05:11:28;1.97;;;1.07;;
2299;SDS011;1158;48.750;9.078;2023-11-21T05:13:55;1.83;;;1.10;;
2299;SDS011;1158;48.750;9.078;2023-11-21T05:16:25;1.90;;;1.23;;
2299;SDS011;1158;48.750;9.078;2023-11-21T05:18:52;3.30;;;1.73;;
2299;SDS011;1158;48.750;9.078;2023-11-21T05:21:21;3.00;;;1.30;;
2299;SDS011;1158;48.750;9.078;2023-11-21T05:23:49;2.37;;;1.00;;
2299;SDS011;1158;48.750;9.078;2023-11-21T05:26:16;2.07;;;1.17;;
2299;SDS011;1158;48.750;9.078;2023-11-21T05:28:43;4.20;;;1.40;;
2299;SDS011;1158;48.750;9.078;2023-11-21T05:31:10;1.73;;;1.10;;
2299;SDS011;1158;48.750;9.078;2023-11-21T05:33:38;2.90;;;1.40;;
2299;SDS011;1158;48.750;9.078;2023-11-21T05:36:05;2.83;;;1.40;;
2299;SDS011;1158;48.750;9.078;2023-11-21T05:38:33;2.93;;;1.40;;
2299;SDS011;1158;48.750;9.078;2023-11-21T05:41:00;3.80;;;1.67;;
2299;SDS011;1158;48.750;9.078;2023-11-21T05:43:27;2.93;;;1.60;;
2299;SDS011;1158;48.750;9.078;2023-11-21T05:45:54;6.80;;;2.53;;
2299;SDS011;1158;48.750;9.078;2023-11-21T05:48:21;3.30;;;1.60;;
2299;SDS011;1158;48.750;9.078;2023-11-21T05:50:49;2.30;;;1.30;;
2299;SDS011;1158;48.750;9.078;2023-11-21T05:53:16;3.97;;;1.93;;
2299;SDS011;1158;48.750;9.078;2023-11-21T05:55:43;3.20;;;1.73;;
2299;SDS011;1158;48.750;9.078;2023-11-21T05:58:09;2.70;;;2.07;;
2299;SDS011;1158;48.750;9.078;2023-11-21T06:00:38;2.93;;;1.90;;
2299;SDS011;1158;48.750;9.078;2023-11-21T06:03:05;4.73;;;1.93;;
2299;SDS011;1158;48.750;9.078;2023-11-21T06:05:33;3.10;;;2.10;;
2299;SDS011;1158;48.750;9.078;2023-11-21T06:08:01;3.43;;;1.70;;
2299;SDS011;1158;48.750;9.078;2023-11-21T06:10:28;4.03;;;2.17;;
2299;SDS011;1158;48.750;9.078;2023-11-21T06:12:54;3.90;;;2.13;;
2299;SDS011;1158;48.750;9.078;2023-11-21T06:15:22;3.37;;;2.23;;
2299;SDS011;1158;48.750;9.078;2023-11-21T06:17:49;3.40;;;2.30;;
2299;SDS011;1158;48.750;9.078;2023-11-21T06:20:18;4.37;;;2.20;;
2299;SDS011;1158;48.750;9.078;2023-11-21T06:22:46;3.60;;;2.00;;
2299;SDS011;1158;48.750;9.078;2023-11-21T06:25:14;4.20;;;2.43;;
2299;SDS011;1158;48.750;9.078;2023-11-21T06:27:43;4.10;;;2.37;;
2299;SDS011;1158;48.750;9.078;2023-11-21T06:30:11;5.77;;;2.97;;
2299;SDS011;1158;48.750;9.078;2023-11-21T06:32:39;6.00;;;2.17;;
2299;SDS011;1158;48.750;9.078;2023-11-21T06:35:06;4.43;;;2.23;;
2299;SDS011;1158;48.750;9.078;2023-11-21T06:37:35;3.27;;;2.00;;
2299;SDS011;1158;48.750;9.078;2023-11-21T06:40:01;3.53;;;2.10;;
2299;SDS011;1158;48.750;9.078;2023-11-21T06:42:31;7.10;;;2.00;;
2299;SDS011;1158;48.750;9.078;2023-11-21T06:44:58;3.87;;;2.33;;
2299;SDS011;1158;48.750;9.078;2023-11-21T06:47:28;4.30;;;2.47;;
2299;SDS011;1158;48.750;9.078;2023-11-21T06:49:55;4.43;;;2.37;;
2299;SDS011;1158;48.750;9.078;2023-11-21T06:52:22;4.07;;;2.13;;
2299;SDS011;1158;48.750;9.078;2023-11-21T06:54:49;3.77;;;2.00;;
2299;SDS011;1158;48.750;9.078;2023-11-21T06:57:16;6.00;;;2.73;;
2299;SDS011;1158;48.750;9.078;2023-11-21T06:59:44;4.53;;;2.30;;
2299;SDS011;1158;48.750;9.078;2023-11-21T07:02:11;3.10;;;2.10;;
2299;SDS011;1158;48.750;9.078;2023-11-21T07:04:38;3.93;;;2.17;;
2299;SDS011;1158;48.750;9.078;2023-11-21T07:07:05;4.90;;;2.83;;
2299;SDS011;1158;48.750;9.078;2023-11-21T07:09:33;5.73;;;3.20;;
2299;SDS011;1158;48.750;9.078;2023-11-21T07:12:00;5.30;;;2.60;;
2299;SDS011;1158;48.750;9.078;2023-11-21T07:14:28;5.23;;;2.80;;
2299;SDS011;1158;48.750;9.078;2023-11-21T07:16:56;3.67;;;2.50;;
2299;SDS011;1158;48.750;9.078;2023-11-21T07:19:23;5.70;;;2.10;;
2299;SDS011;1158;48.750;9.078;2023-11-21T07:21:50;5.50;;;2.73;;
2299;SDS011;1158;48.750;9.078;2023-11-21T07:24:17;11.73;;;2.60;;
2299;SDS011;1158;48.750;9.078;2023-11-21T07:26:43;2.90;;;2.10;;
2299;SDS011;1158;48.750;9.078;2023-11-21T07:29:10;5.70;;;2.90;;
2299;SDS011;1158;48.750;9.078;2023-11-21T07:31:38;2.83;;;1.60;;
2299;SDS011;1158;48.750;9.078;2023-11-21T07:34:07;4.80;;;2.60;;
2299;SDS011;1158;48.750;9.078;2023-11-21T07:36:34;3.13;;;1.97;;
2299;SDS011;1158;48.750;9.078;2023-11-21T07:39:00;4.17;;;2.10;;
2299;SDS011;1158;48.750;9.078;2023-11-21T07:41:27;3.90;;;2.33;;
2299;SDS011;1158;48.750;9.078;2023-11-21T07:43:55;5.57;;;2.30;;
2299;SDS011;1158;48.750;9.078;2023-11-21T07:46:22;3.57;;;2.27;;
2299;SDS011;1158;48.750;9.078;2023-11-21T07:48:49;3.80;;;1.90;;
2299;SDS011;1158;48.750;9.078;2023-11-21T07:51:18;4.97;;;2.07;;
2299;SDS011;1158;48.750;9.078;2023-11-21T07:53:45;3.43;;;2.10;;
2299;SDS011;1158;48.750;9.078;2023-11-21T07:56:12;6.30;;;2.40;;
2299;SDS011;1158;48.750;9.078;2023-11-21T07:58:38;2.50;;;2.10;;
2299;SDS011;1158;48.750;9.078;2023-11-21T08:01:06;3.90;;;2.73;;
2299;SDS011;1158;48.750;9.078;2023-11-21T08:03:33;7.30;;;2.77;;
2299;SDS011;1158;48.750;9.078;2023-11-21T08:05:59;4.17;;;2.47;;
2299;SDS011;1158;48.750;9.078;2023-11-21T08:08:29;5.67;;;2.67;;
2299;SDS011;1158;48.750;9.078;2023-11-21T08:10:57;6.67;;;2.57;;
2299;SDS011;1158;48.750;9.078;2023-11-21T08:13:23;4.03;;;2.43;;
2299;SDS011;1158;48.750;9.078;2023-11-21T08:15:53;3.73;;;2.17;;
2299;SDS011;1158;48.750;9.078;2023-11-21T08:18:20;6.70;;;2.70;;
2299;SDS011;1158;48.750;9.078;2023-11-21T08:20:47;3.83;;;2.60;;
2299;SDS011;1158;48.750;9.078;2023-11-21T08:23:14;3.60;;;2.33;;
2299;SDS011;1158;48.750;9.078;2023-11-21T08:25:43;3.70;;;2.00;;
2299;SDS011;1158;48.750;9.078;2023-11-21T08:28:10;4.87;;;2.77;;
2299;SDS011;1158;48.750;9.078;2023-11-21T08:30:37;4.20;;;2.40;;
2299;SDS011;1158;48.750;9.078;2023-11-21T08:33:04;6.80;;;3.00;;
2299;SDS011;1158;48.750;9.078;2023-11-21T08:35:31;4.43;;;2.67;;
2299;SDS011;1158;48.750;9.078;2023-11-21T08:37:58;5.57;;;2.60;;
2299;SDS011;1158;48.750;9.078;2023-11-21T08:40:25;3.43;;;2.53;;
2299;SDS011;1158;48.750;9.078;2023-11-21T08:42:53;4.50;;;3.03;;
2299;SDS011;1158;48.750;9.078;2023-11-21T08:45:20;3.97;;;2.73;;
2299;SDS011;1158;48.750;9.078;2023-11-21T08:47:47;4.40;;;2.90;;
2299;SDS011;1158;48.750;9.078;2023-11-21T08:50:14;4.40;;;2.57;;
2299;SDS011;1158;48.750;9.078;2023-11-21T08:52:41;3.37;;;2.13;;
2299;SDS011;1158;48.750;9.078;2023-11-21T08:55:08;3.60;;;2.23;;
2299;SDS011;1158;48.750;9.078;2023-11-21T08:57:37;3.93;;;2.63;;
2299;SDS011;1158;48.750;9.078;2023-11-21T09:00:07;6.90;;;2.23;;
2299;SDS011;1158;48.750;9.078;2023-11-21T09:02:36;4.30;;;1.83;;
2299;SDS011;1158;48.750;9.078;2023-11-21T09:05:03;3.70;;;1.80;;
2299;SDS011;1158;48.750;9.078;2023-11-21T09:07:31;5.27;;;2.40;;
2299;SDS011;1158;48.750;9.078;2023-11-21T09:09:57;4.83;;;2.07;;
2299;SDS011;1158;48.750;9.078;2023-11-21T09:12:24;4.00;;;2.20;;
2299;SDS011;1158;48.750;9.078;2023-11-21T09:14:51;4.03;;;1.73;;
2299;SDS011;1158;48.750;9.078;2023-11-21T09:17:19;4.53;;;1.63;;
2299;SDS011;1158;48.750;9.078;2023-11-21T09:19:46;3.70;;;1.70;;
2299;SDS011;1158;48.750;9.078;2023-11-21T09:22:16;3.73;;;1.73;;
2299;SDS011;1158;48.750;9.078;2023-11-21T09:24:43;4.57;;;2.10;;
2299;SDS011;1158;48.750;9.078;2023-11-21T09:27:10;5.50;;;1.80;;
2299;SDS011;1158;48.750;9.078;2023-11-21T09:29:36;3.20;;;1.50;;
2299;SDS011;1158;48.750;9.078;2023-11-21T09:32:04;2.90;;;1.90;;
2299;SDS011;1158;48.750;9.078;2023-11-21T09:34:34;2.67;;;1.90;;
2299;SDS011;1158;48.750;9.078;2023-11-21T09:37:03;2.87;;;1.83;;
2299;SDS011;1158;48.750;9.078;2023-11-21T09:39:31;3.60;;;2.20;;
2299;SDS011;1158;48.750;9.078;2023-11-21T09:42:00;2.40;;;1.70;;
2299;SDS011;1158;48.750;9.078;2023-11-21T09:44:35;4.47;;;2.03;;
2299;SDS011;1158;48.750;9.078;2023-11-21T09:47:08;5.40;;;2.00;;
2299;SDS011;1158;48.750;9.078;2023-11-21T09:49:38;5.67;;;2.60;;
2299;SDS011;1158;48.750;9.078;2023-11-21T09:52:05;5.87;;;2.37;;
2299;SDS011;1158;48.750;9.078;2023-11-21T09:54:35;3.50;;;1.77;;
2299;SDS011;1158;48.750;9.078;2023-11-21T09:57:02;3.40;;;2.30;;
2299;SDS011;1158;48.750;9.078;2023-11-21T09:59:30;11.37;;;2.67;;
2299;SDS011;1158;48.750;9.078;2023-11-21T10:01:58;5.33;;;2.30;;
2299;SDS011;1158;48.750;9.078;2023-11-21T10:04:25;3.70;;;2.30;;
2299;SDS011;1158;48.750;9.078;2023-11-21T10:06:53;3.40;;;2.33;;
2299;SDS011;1158;48.750;9.078;2023-11-21T10:09:20;6.10;;;1.97;;
2299;SDS011;1158;48.750;9.078;2023-11-21T10:11:49;4.77;;;2.20;;
2299;SDS011;1158;48.750;9.078;2023-11-21T10:14:16;3.97;;;2.00;;
2299;SDS011;1158;48.750;9.078;2023-11-21T10:16:46;3.30;;;2.03;;
2299;SDS011;1158;48.750;9.078;2023-11-21T10:19:14;5.00;;;2.00;;
2299;SDS011;1158;48.750;9.078;2023-11-21T10:21:42;4.07;;;2.23;;
2299;SDS011;1158;48.750;9.078;2023-11-21T10:24:10;4.17;;;2.30;;
2299;SDS011;1158;48.750;9.078;2023-11-21T10:26:38;6.53;;;2.27;;
2299;SDS011;1158;48.750;9.078;2023-11-21T10:29:04;2.87;;;1.80;;
2299;SDS011;1158;48.750;9.078;2023-11-21T10:31:31;6.37;;;2.70;;
2299;SDS011;1158;48.750;9.078;2023-11-21T10:34:11;4.83;;;2.60;;
2299;SDS011;1158;48.750;9.078;2023-11-21T10:36:42;3.67;;;2.00;;
2299;SDS011;1158;48.750;9.078;2023-11-21T10:39:10;5.20;;;2.00;;
2299;SDS011;1158;48.750;9.078;2023-11-21T10:41:43;5.60;;;2.37;;
2299;SDS011;1158;48.750;9.078;2023-11-21T10:44:10;2.67;;;1.60;;
2299;SDS011;1158;48.750;9.078;2023-11-21T10:46:39;2.73;;;1.53;;
2299;SDS011;1158;48.750;9.078;2023-11-21T10:49:07;4.20;;;1.80;;
2299;SDS011;1158;48.750;9.078;2023-11-21T10:51:34;3.57;;;2.20;;
2299;SDS011;1158;48.750;9.078;2023-11-21T10:54:01;4.80;;;1.50;;
2299;SDS011;1158;48.750;9.078;2023-11-21T10:56:29;2.57;;;1.50;;
2299;SDS011;1158;48.750;9.078;2023-11-21T10:59:00;3.03;;;1.80;;
2299;SDS011;1158;48.750;9.078;2023-11-21T11:01:27;2.10;;;1.40;;
2299;SDS011;1158;48.750;9.078;2023-11-21T11:03:57;4.67;;;1.40;;
2299;SDS011;1158;48.750;9.078;2023-11-21T11:06:25;2.23;;;1.40;;
2299;SDS011;1158;48.750;9.078;2023-11-21T11:08:54;2.10;;;1.50;;
2299;SDS011;1158;48.750;9.078;2023-11-21T11:11:21;4.63;;;1.67;;
2299;SDS011;1158;48.750;9.078;2023-11-21T11:13:50;2.30;;;1.23;;
2299;SDS011;1158;48.750;9.078;2023-11-21T11:16:17;4.67;;;1.40;;
2299;SDS011;1158;48.750;9.078;2023-11-21T11:18:45;2.80;;;1.40;;
2299;SDS011;1158;48.750;9.078;2023-11-21T11:21:17;1.97;;;1.40;;
2299;SDS011;1158;48.750;9.078;2023-11-21T11:23:56;2.27;;;1.37;;
2299;SDS011;1158;48.750;9.078;2023-11-21T11:26:42;2.63;;;1.33;;
2299;SDS011;1158;48.750;9.078;2023-11-21T11:29:22;3.00;;;1.50;;
2299;SDS011;1158;48.750;9.078;2023-11-21T11:32:00;4.90;;;1.67;;
2299;SDS011;1158;48.750;9.078;2023-11-21T11:34:36;2.30;;;1.60;;
2299;SDS011;1158;48.750;9.078;2023-11-21T11:37:08;2.50;;;1.30;;
2299;SDS011;1158;48.750;9.078;2023-11-21T11:39:36;2.40;;;1.80;;
2299;SDS011;1158;48.750;9.078;2023-11-21T11:42:06;3.63;;;1.73;;
2299;SDS011;1158;48.750;9.078;2023-11-21T11:44:47;3.77;;;2.07;;
2299;SDS011;1158;48.750;9.078;2023-11-21T11:47:19;2.53;;;1.70;;
2299;SDS011;1158;48.750;9.078;2023-11-21T11:50:00;2.63;;;1.57;;
2299;SDS011;1158;48.750;9.078;2023-11-21T11:52:39;3.00;;;1.83;;
2299;SDS011;1158;48.750;9.078;2023-11-21T11:55:06;2.03;;;1.53;;
2299;SDS011;1158;48.750;9.078;2023-11-21T11:57:36;2.13;;;1.60;;
2299;SDS011;1158;48.750;9.078;2023-11-21T12:00:09;3.30;;;1.67;;
2299;SDS011;1158;48.750;9.078;2023-11-21T12:02:41;2.90;;;1.40;;
2299;SDS011;1158;48.750;9.078;2023-11-21T12:05:09;2.40;;;1.50;;
2299;SDS011;1158;48.750;9.078;2023-11-21T12:07:41;2.60;;;1.90;;
2299;SDS011;1158;48.750;9.078;2023-11-21T12:10:11;2.10;;;1.33;;
2299;SDS011;1158;48.750;9.078;2023-11-21T12:12:41;3.13;;;2.00;;
2299;SDS011;1158;48.750;9.078;2023-11-21T12:15:10;2.67;;;1.70;;
2299;SDS011;1158;48.750;9.078;2023-11-21T12:17:37;5.43;;;1.80;;
2299;SDS011;1158;48.750;9.078;2023-11-21T12:20:05;1.80;;;1.40;;
2299;SDS011;1158;48.750;9.078;2023-11-21T12:22:39;3.80;;;1.40;;
2299;SDS011;1158;48.750;9.078;2023-11-21T12:25:08;2.53;;;1.23;;
2299;SDS011;1158;48.750;9.078;2023-11-21T12:27:35;3.53;;;1.10;;
2299;SDS011;1158;48.750;9.078;2023-11-21T12:30:01;1.97;;;1.10;;
2299;SDS011;1158;48.750;9.078;2023-11-21T12:32:31;1.70;;;1.17;;
2299;SDS011;1158;48.750;9.078;2023-11-21T12:34:58;2.40;;;1.40;;
2299;SDS011;1158;48.750;9.078;2023-11-21T12:37:26;1.90;;;1.30;;
2299;SDS011;1158;48.750;9.078;2023-11-21T12:39:52;2.70;;;1.40;;
2299;SDS011;1158;48.750;9.078;2023-11-21T12:42:22;3.60;;;1.20;;
2299;SDS011;1158;48.750;9.078;2023-11-21T12:45:06;7.30;;;1.00;;
2299;SDS011;1158;48.750;9.078;2023-11-21T12:47:35;2.07;;;1.50;;
2299;SDS011;1158;48.750;9.078;2023-11-21T12:50:02;2.00;;;1.40;;
2299;SDS011;1158;48.750;9.078;2023-11-21T12:52:31;2.20;;;1.30;;
2299;SDS011;1158;48.750;9.078;2023-11-21T12:54:58;3.20;;;1.80;;
2299;SDS011;1158;48.750;9.078;2023-11-21T12:57:25;2.67;;;1.50;;
2299;SDS011;1158;48.750;9.078;2023-11-21T12:59:56;4.03;;;1.60;;
2299;SDS011;1158;48.750;9.078;2023-11-21T13:02:25;2.50;;;1.80;;
2299;SDS011;1158;48.750;9.078;2023-11-21T13:04:53;2.47;;;1.63;;
2299;SDS011;1158;48.750;9.078;2023-11-21T13:07:23;3.70;;;2.17;;
2299;SDS011;1158;48.750;9.078;2023-11-21T13:09:51;5.37;;;2.20;;
2299;SDS011;1158;48.750;9.078;2023-11-21T13:12:23;4.90;;;2.90;;
2299;SDS011;1158;48.750;9.078;2023-11-21T13:14:50;4.27;;;2.97;;
2299;SDS011;1158;48.750;9.078;2023-11-21T13:17:17;5.70;;;2.90;;
2299;SDS011;1158;48.750;9.078;2023-11-21T13:19:44;4.97;;;3.17;;
2299;SDS011;1158;48.750;9.078;2023-11-21T13:22:12;4.40;;;3.10;;
2299;SDS011;1158;48.750;9.078;2023-11-21T13:24:39;6.07;;;3.57;;
2299;SDS011;1158;48.750;9.078;2023-11-21T13:27:05;2.07;;;1.50;;
2299;SDS011;1158;48.750;9.078;2023-11-21T13:29:32;1.80;;;0.90;;
2299;SDS011;1158;48.750;9.078;2023-11-21T13:32:00;1.60;;;1.00;;
2299;SDS011;1158;48.750;9.078;2023-11-21T13:34:31;1.43;;;0.93;;
2299;SDS011;1158;48.750;9.078;2023-11-21T13:36:58;1.73;;;0.90;;
2299;SDS011;1158;48.750;9.078;2023-11-21T13:39:27;2.57;;;0.80;;
2299;SDS011;1158;48.750;9.078;2023-11-21T13:41:57;1.60;;;0.80;;
2299;SDS011;1158;48.750;9.078;2023-11-21T13:44:24;1.50;;;0.80;;
2299;SDS011;1158;48.750;9.078;2023-11-21T13:46:59;1.63;;;0.80;;
2299;SDS011;1158;48.750;9.078;2023-11-21T13:49:26;1.50;;;0.80;;
2299;SDS011;1158;48.750;9.078;2023-11-21T13:51:52;1.50;;;0.80;;
2299;SDS011;1158;48.750;9.078;2023-11-21T13:54:20;2.27;;;0.90;;
2299;SDS011;1158;48.750;9.078;2023-11-21T13:56:50;1.53;;;0.90;;
2299;SDS011;1158;48.750;9.078;2023-11-21T13:59:17;3.13;;;1.23;;
2299;SDS011;1158;48.750;9.078;2023-11-21T14:01:46;1.60;;;1.10;;
2299;SDS011;1158;48.750;9.078;2023-11-21T14:04:24;2.10;;;1.23;;
2299;SDS011;1158;48.750;9.078;2023-11-21T14:07:11;3.00;;;1.73;;
2299;SDS011;1158;48.750;9.078;2023-11-21T14:09:47;2.43;;;1.80;;
2299;SDS011;1158;48.750;9.078;2023-11-21T14:12:16;2.50;;;1.77;;
2299;SDS011;1158;48.750;9.078;2023-11-21T14:14:42;3.87;;;2.43;;
2299;SDS011;1158;48.750;9.078;2023-11-21T14:17:10;2.60;;;1.93;;
2299;SDS011;1158;48.750;9.078;2023-11-21T14:19:37;2.80;;;2.27;;
2299;SDS011;1158;48.750;9.078;2023-11-21T14:22:05;3.70;;;2.60;;
2299;SDS011;1158;48.750;9.078;2023-11-21T14:24:32;7.93;;;2.67;;
2299;SDS011;1158;48.750;9.078;2023-11-21T14:26:59;4.07;;;2.90;;
2299;SDS011;1158;48.750;9.078;2023-11-21T14:29:27;5.17;;;3.60;;
2299;SDS011;1158;48.750;9.078;2023-11-21T14:31:54;3.93;;;3.20;;
2299;SDS011;1158;48.750;9.078;2023-11-21T14:34:22;4.50;;;3.30;;
2299;SDS011;1158;48.750;9.078;2023-11-21T14:36:51;5.03;;;2.87;;
2299;SDS011;1158;48.750;9.078;2023-11-21T14:39:18;4.97;;;3.43;;
2299;SDS011;1158;48.750;9.078;2023-11-21T14:41:48;3.73;;;2.70;;
2299;SDS011;1158;48.750;9.078;2023-11-21T14:44:15;3.13;;;2.60;;
2299;SDS011;1158;48.750;9.078;2023-11-21T14:46:43;5.33;;;2.90;;
2299;SDS011;1158;48.750;9.078;2023-11-21T14:49:11;4.67;;;3.13;;
2299;SDS011;1158;48.750;9.078;2023-11-21T14:51:44;4.93;;;2.90;;
2299;SDS011;1158;48.750;9.078;2023-11-21T14:54:25;4.23;;;3.23;;
2299;SDS011;1158;48.750;9.078;2023-11-21T14:57:05;6.20;;;3.20;;
2299;SDS011;1158;48.750;9.078;2023-11-21T14:59:35;5.30;;;3.20;;
2299;SDS011;1158;48.750;9.078;2023-11-21T15:02:03;7.33;;;3.57;;
2299;SDS011;1158;48.750;9.078;2023-11-21T15:04:40;5.00;;;3.40;;
2299;SDS011;1158;48.750;9.078;2023-11-21T15:07:07;4.33;;;3.40;;
2299;SDS011;1158;48.750;9.078;2023-11-21T15:09:34;4.93;;;3.67;;
2299;SDS011;1158;48.750;9.078;2023-11-21T15:12:05;5.90;;;3.50;;
2299;SDS011;1158;48.750;9.078;2023-11-21T15:14:39;6.97;;;4.10;;
2299;SDS011;1158;48.750;9.078;2023-11-21T15:17:09;4.93;;;4.10;;
2299;SDS011;1158;48.750;9.078;2023-11-21T15:19:37;7.00;;;3.73;;
2299;SDS011;1158;48.750;9.078;2023-11-21T15:22:04;9.53;;;4.07;;